Latest Weather Observations for Wangaratta

IDV60801

Issued at 7:05 am EST Wednesday 3 September 2014 (issued every 30 minutes, with the page automatically refreshed every 10 minutes)

About weather observations | Map of weather stations | Latest weather observations for VIC | Other Formats
Station Details ID: 082138 Name: WANGARATTA AERO Lat: -36.42 Lon: 146.31 Height: 152.6 m
Data from the previous 72 hours. | See also: Recent months at Wangaratta
Date/Time
EST
Temp
°C
App
Temp
°C
Dew
Point
Rel
Hum
%
Delta-T
°C
Wind Press
QNH
hPa
Press
MSL
hPa
Rain
since 9 am
mm
Dir
 
Spd
km/h
Gust
km/h
Spd
kts
Gust
kts
03/07:00am 0.5 -1.5 0.1 97 0.1 ENE 0 6 0 3 1021.1 1021.2 2.0
03/06:30am 0.6 -2.7 0.0 96 0.2 ENE 7 11 4 6 1020.9 1021.0 2.0
03/06:00am 0.2 -3.6 -0.8 93 0.4 SSE 9 13 5 7 1020.8 1020.9 2.0
03/05:30am 1.4 -2.3 -0.2 89 0.6 S 9 11 5 6 1020.5 1020.6 2.0
03/05:00am 2.3 -1.1 -0.4 82 1.0 S 7 11 4 6 1020.4 1020.5 2.0
03/04:30am 5.0 0.5 2.0 81 1.2 SW 15 20 8 11 1020.3 1020.4 2.0
03/04:00am 4.8 0.2 1.8 81 1.2 SW 15 19 8 10 1020.1 1020.2 2.0
03/03:30am 3.6 -0.7 1.0 83 1.0 SSW 13 17 7 9 1020.2 1020.3 2.0
03/03:00am 3.9 -0.4 1.3 83 1.0 SSW 13 15 7 8 1020.1 1020.2 2.0
03/02:30am 3.8 0.5 0.3 78 1.3 S 7 9 4 5 1020.4 1020.5 2.0
03/02:00am 4.5 2.3 0.8 77 1.4 SW 2 6 1 3 1020.6 1020.7 2.0
03/01:30am 5.2 0.9 1.0 74 1.7 SSW 13 17 7 9 1020.8 1020.9 2.0
03/01:00am 4.8 0.4 0.6 74 1.6 SSW 13 17 7 9 1020.7 1020.8 2.0
03/12:30am 6.2 1.5 0.7 68 2.2 S 15 19 8 10 1020.6 1020.7 2.0
03/12:00am 6.4 2.1 0.9 68 2.2 SSW 13 19 7 10 1020.6 1020.7 2.0
 
Date/Time
EST
Temp
°C
App
Temp
°C
Dew
Point
Rel
Hum
%
Delta-T
°C
Wind Press
QNH
hPa
Press
MSL
hPa
Rain
since 9 am
mm
Dir
 
Spd
km/h
Gust
km/h
Spd
kts
Gust
kts
02/11:30pm 5.8 1.6 1.5 74 1.7 SSW 13 19 7 10 1020.6 1020.7 2.0
02/11:00pm 6.6 1.6 1.5 70 2.1 SSW 17 20 9 11 1020.4 1020.5 2.0
02/10:30pm 6.4 2.3 2.1 74 1.8 SW 13 19 7 10 1020.4 1020.5 2.0
02/10:00pm 6.5 2.5 2.9 78 1.5 SSW 13 17 7 9 1020.3 1020.4 2.0
02/09:30pm 7.3 3.0 3.0 74 1.8 SW 15 20 8 11 1020.1 1020.2 2.0
02/09:00pm 7.7 3.3 2.6 70 2.1 SW 15 19 8 10 1020.1 1020.2 2.0
02/08:30pm 8.2 2.8 2.4 67 2.4 SSW 20 32 11 17 1019.8 1019.9 2.0
02/08:00pm 8.2 3.4 2.4 67 2.4 SSW 17 22 9 12 1019.4 1019.5 2.0
02/07:30pm 8.6 3.4 2.6 66 2.5 SSW 19 24 10 13 1019.2 1019.3 2.0
02/07:00pm 9.2 3.5 2.8 64 2.7 SSW 22 28 12 15 1018.7 1018.8 2.0
02/06:30pm 9.8 4.1 3.1 63 2.9 SSW 22 28 12 15 1018.3 1018.5 2.0
02/06:00pm 9.7 5.2 4.1 68 2.5 S 17 20 9 11 1018.0 1018.2 2.0
02/05:30pm 11.0 4.7 4.0 62 3.1 SSW 26 35 14 19 1017.4 1017.5 2.0
02/05:00pm 11.5 6.7 4.7 63 3.1 SSW 19 24 10 13 1017.2 1017.3 2.0
02/04:30pm 11.8 6.7 4.1 59 3.5 S 20 30 11 16 1016.8 1016.9 2.0
02/04:00pm 12.1 7.2 5.3 63 3.2 S 20 28 11 15 1016.4 1016.5 2.0
02/03:30pm 9.9 4.6 4.9 71 2.3 SSW 22 32 12 17 1016.4 1016.5 2.0
02/03:01pm 7.1 -0.1 4.9 86 1.0 S 32 50 17 27 1016.8 1016.9 1.8
02/03:00pm 7.1 -0.3 4.9 86 1.0 S 33 50 18 27 1016.8 1016.9 1.8
02/02:49pm 10.5 -1.3 2.8 59 3.3 S 54 67 29 36 1016.4 1016.5 0.0
02/02:30pm 13.4 6.0 5.1 57 3.9 SSW 33 54 18 29 1015.1 1015.2 0.0
02/02:24pm 13.1 6.5 4.0 54 4.2 SSW 28 54 15 29 1015.0 1015.1 0.0
02/02:00pm 11.6 3.4 4.8 63 3.1 SSW 37 52 20 28 1015.0 1015.1 0.0
02/01:30pm 14.2 5.9 4.2 51 4.6 SSW 37 50 20 27 1014.5 1014.6 0.0
02/01:06pm 13.9 6.5 3.9 51 4.6 SSW 32 50 17 27 1014.8 1014.9 0.0
02/01:00pm 14.1 6.7 4.9 54 4.3 SSW 33 44 18 24 1014.7 1014.8 0.0
02/12:30pm 14.4 8.0 5.2 54 4.4 SSW 28 39 15 21 1014.6 1014.7 0.0
02/12:00pm 13.8 6.9 4.7 54 4.2 SSW 30 43 16 23 1015.0 1015.1 0.0
02/11:30am 13.7 7.3 5.3 57 4.0 SSW 28 35 15 19 1015.0 1015.1 0.0
02/11:00am 13.0 7.0 5.4 60 3.6 SW 26 37 14 20 1015.4 1015.5 0.0
02/10:30am 12.2 7.1 5.8 65 3.0 SW 22 32 12 17 1015.3 1015.4 0.0
02/10:00am 11.4 6.4 6.5 72 2.3 WSW 22 32 12 17 1015.3 1015.4 0.0
02/09:30am 10.9 5.4 5.9 71 2.3 WSW 24 33 13 18 1015.1 1015.2 0.0
02/09:00am 10.5 5.5 6.3 75 2.0 SW 22 28 12 15 1015.1 1015.2 13.6
02/08:30am 9.4 4.3 5.8 78 1.7 SW 22 30 12 16 1015.0 1015.1 13.6
02/08:00am 9.0 4.4 5.7 80 1.5 WSW 19 28 10 15 1014.6 1014.7 13.6
02/07:30am 8.5 4.4 6.0 84 1.1 SW 17 20 9 11 1014.4 1014.5 13.6
02/07:00am 7.7 3.8 5.5 86 1.0 SW 15 20 8 11 1013.9 1014.0 13.6
02/06:30am 7.6 3.1 5.9 89 0.8 WSW 19 24 10 13 1013.7 1013.8 13.6
02/06:00am 8.1 4.0 6.1 87 0.9 WSW 17 24 9 13 1013.3 1013.4 13.6
02/05:30am 7.8 4.9 6.4 91 0.6 W 11 15 6 8 1013.0 1013.1 13.6
02/05:00am 8.0 4.7 6.6 91 0.6 WSW 13 20 7 11 1012.7 1012.8 13.6
02/04:30am 7.7 4.1 6.6 93 0.5 WSW 15 19 8 10 1012.5 1012.6 13.6
02/04:00am 7.9 3.9 6.5 91 0.6 W 17 22 9 12 1012.5 1012.6 13.6
02/03:30am 8.0 4.3 6.5 90 0.7 WSW 15 20 8 11 1012.0 1012.0 13.6
02/03:00am 8.3 3.0 6.8 90 0.7 WSW 24 30 13 16 1011.9 1011.9 13.6
02/02:30am 8.4 3.9 7.0 91 0.7 SW 20 30 11 16 1011.8 1011.8 13.6
02/02:00am 8.5 4.0 7.0 90 0.7 WSW 20 28 11 15 1011.7 1011.7 13.6
02/01:30am 9.0 4.6 7.3 89 0.8 W 20 28 11 15 1012.0 1012.0 13.6
02/01:00am 9.1 5.3 7.4 89 0.8 WSW 17 20 9 11 1012.0 1012.0 13.6
02/12:30am 9.2 6.9 7.6 90 0.8 W 9 15 5 8 1011.8 1011.8 13.6
02/12:00am 9.2 6.7 8.0 92 0.6 WSW 11 13 6 7 1011.4 1011.5 13.6
 
Date/Time
EST
Temp
°C
App
Temp
°C
Dew
Point
Rel
Hum
%
Delta-T
°C
Wind Press
QNH
hPa
Press
MSL
hPa
Rain
since 9 am
mm
Dir
 
Spd
km/h
Gust
km/h
Spd
kts
Gust
kts
01/11:30pm 9.5 6.9 9.2 98 0.1 W 13 15 7 8 1011.8 1011.8 13.6
01/11:00pm 9.6 8.2 9.5 99 0.1 WSW 7 9 4 5 1011.4 1011.5 13.6
01/10:30pm 9.7 8.5 9.6 99 0.1 SSW 6 7 3 4 1011.5 1011.6 13.6
01/10:00pm 9.8 9.8 9.7 99 0.1 CALM 0 0 0 0 1011.7 1011.7 13.6
01/09:30pm 9.8 8.6 9.7 99 0.1 W 6 9 3 5 1011.9 1011.9 13.6
01/09:00pm 9.8 8.4 9.7 99 0.1 NW 7 11 4 6 1011.9 1011.9 13.2
01/08:30pm 10.0 8.3 9.9 99 0.1 NW 9 13 5 7 1011.7 1011.7 12.6
01/08:00pm 10.1 8.8 9.9 99 0.1 NNW 7 9 4 5 1011.5 1011.6 11.8
01/07:30pm 10.1 9.0 9.9 99 0.1 N 6 9 3 5 1011.3 1011.4 11.0
01/07:00pm 10.4 9.4 10.2 99 0.1 NE 6 7 3 4 1011.1 1011.2 10.2
01/06:30pm 10.6 10.4 10.4 99 0.1 NNW 2 6 1 3 1011.2 1011.3 9.0
01/06:00pm 10.7 8.4 10.5 99 0.1 SW 13 24 7 13 1010.8 1010.9 6.8
01/05:30pm 10.7 9.2 10.4 98 0.2 WSW 9 13 5 7 1010.5 1010.6 4.8
01/05:00pm 10.7 9.6 10.1 96 0.3 WNW 6 11 3 6 1010.6 1010.7 3.8
01/04:30pm 10.7 9.4 10.1 96 0.3 W 7 11 4 6 1010.3 1010.4 3.0
01/04:00pm 11.1 8.7 10.0 93 0.6 WNW 13 19 7 10 1010.1 1010.2 1.8
01/03:30pm 11.5 8.5 9.2 86 1.2 WNW 15 19 8 10 1010.2 1010.3 0.6
01/03:00pm 13.7 10.7 7.7 67 3.0 W 13 17 7 9 1009.7 1009.8 0.2
01/02:30pm 15.0 12.3 7.5 61 3.7 W 11 20 6 11 1009.6 1009.7 0.0
01/02:00pm 15.9 12.9 7.9 59 4.1 NNW 13 19 7 10 1009.8 1009.9 0.0
01/01:30pm 16.8 13.4 7.7 55 4.6 NNW 15 22 8 12 1010.0 1010.1 0.0
01/01:00pm 16.4 13.6 8.4 59 4.1 N 13 17 7 9 1010.2 1010.3 0.0
01/12:30pm 16.4 13.1 7.9 57 4.3 N 15 22 8 12 1010.4 1010.5 0.0
01/12:00pm 16.0 11.8 7.5 57 4.3 N 19 24 10 13 1010.8 1010.9 0.0
01/11:30am 15.6 11.8 7.4 58 4.1 N 17 24 9 13 1011.3 1011.4 0.0
01/11:00am 15.2 11.3 7.2 59 4.0 N 17 24 9 13 1011.4 1011.5 0.0
01/10:30am 14.7 9.4 6.8 59 3.9 N 24 32 13 17 1011.5 1011.6 0.0
01/10:00am 14.6 11.4 6.9 60 3.8 N 13 20 7 11 1012.3 1012.4 0.0
01/09:30am 13.4 12.3 8.3 71 2.6 SSW 4 7 2 4 1012.8 1013.0 0.0
01/09:00am 12.2 11.8 8.3 77 1.9 CALM 0 6 0 3 1013.2 1013.4 0.0
01/08:30am 11.0 10.8 8.9 87 1.0 CALM 0 0 0 0 1013.3 1013.5 0.0
01/08:00am 8.6 8.3 8.5 99 0.0 CALM 0 0 0 0 1013.7 1013.9 0.0
01/07:30am 7.7 6.4 7.6 99 0.0 ESE 4 7 2 4 1013.8 1014.0 0.0
01/07:00am 6.6 4.7 6.5 99 0.0 W 6 13 3 7 1014.1 1014.3 0.0
01/06:30am 5.5 3.7 5.4 99 0.0 S 4 9 2 5 1013.6 1013.8 0.0
01/06:00am 5.5 4.5 5.4 99 0.0 CALM 0 0 0 0 1013.8 1014.0 0.0
01/05:30am 5.6 4.6 5.5 99 0.0 CALM 0 0 0 0 1013.9 1014.1 0.0
01/05:00am 5.2 4.1 5.1 99 0.0 CALM 0 0 0 0 1014.0 1014.2 0.0
01/04:30am 5.3 4.2 5.2 99 0.0 CALM 0 0 0 0 1014.0 1014.2 0.0
01/04:00am 5.4 4.3 5.3 99 0.0 CALM 0 0 0 0 1014.1 1014.3 0.0
01/03:30am 4.9 3.7 4.8 99 0.0 CALM 0 0 0 0 1014.3 1014.5 0.0
01/03:00am 4.9 3.7 4.8 99 0.0 CALM 0 0 0 0 1014.7 1015.0 0.0
01/02:30am 5.4 3.0 5.3 99 0.0 SSW 7 9 4 5 1015.0 1015.3 0.0
01/02:00am 6.1 5.2 6.0 99 0.0 CALM 0 0 0 0 1014.9 1015.2 0.0
01/01:30am 6.4 5.5 6.1 98 0.1 CALM 0 0 0 0 1014.9 1015.2 0.0
01/01:00am 7.1 6.4 7.0 99 0.0 CALM 0 0 0 0 1015.0 1015.3 0.0
01/12:30am 6.9 6.2 6.8 99 0.0 CALM 0 0 0 0 1015.1 1015.4 0.0
01/12:00am 7.3 6.7 7.2 99 0.0 CALM 0 0 0 0 1015.0 1015.3 0.0
 
Date/Time
EST
Temp
°C
App
Temp
°C
Dew
Point
Rel
Hum
%
Delta-T
°C
Wind Press
QNH
hPa
Press
MSL
hPa
Rain
since 9 am
mm
Dir
 
Spd
km/h
Gust
km/h
Spd
kts
Gust
kts
31/11:30pm 7.3 6.6 6.9 97 0.2 CALM 0 0 0 0 1015.3 1015.6 0.0
31/11:00pm 7.6 6.9 7.0 96 0.3 CALM 0 2 0 1 1015.6 1015.9 0.0
31/10:30pm 7.9 6.2 7.5 97 0.2 SW 6 7 3 4 1016.1 1016.4 0.0
31/10:00pm 8.1 6.4 7.5 96 0.3 SW 6 7 3 4 1016.2 1016.5 0.0
31/09:30pm 8.4 6.7 7.6 95 0.4 SSW 6 7 3 4 1016.3 1016.6 0.0
31/09:00pm 8.5 6.6 7.7 95 0.4 WSW 7 7 4 4 1016.5 1016.8 0.0
31/08:30pm 9.2 7.6 8.1 93 0.5 SSW 6 7 3 4 1016.6 1016.9 0.0
31/08:00pm 9.4 8.8 7.5 88 0.9 CALM 0 0 0 0 1016.7 1017.0 0.0
31/07:30pm 10.3 9.9 8.2 87 1.0 CALM 0 0 0 0 1016.9 1017.2 0.0
31/07:00pm 10.6 10.0 7.3 80 1.6 CALM 0 0 0 0 1016.9 1017.2 0.0
31/06:30pm 13.1 10.7 6.9 66 3.0 ENE 9 11 5 6 1016.8 1017.1 0.0
31/06:00pm 14.3 12.3 7.1 62 3.5 ENE 7 9 4 5 1016.8 1017.1 0.0
31/05:30pm 16.4 14.0 6.8 53 4.8 NNE 9 11 5 6 1016.7 1017.0 0.0
31/05:00pm 17.5 14.3 7.0 50 5.3 NNE 13 15 7 8 1016.7 1017.0 0.0
31/04:30pm 18.2 14.7 7.0 48 5.7 NNE 15 19 8 10 1016.5 1016.8 0.0
31/04:00pm 18.6 15.0 6.8 46 5.9 NE 15 19 8 10 1016.7 1017.0 0.0
31/03:30pm 18.6 15.3 6.4 45 6.1 NNE 13 19 7 10 1017.0 1017.3 0.0
31/03:00pm 18.7 15.7 5.9 43 6.3 N 11 15 6 8 1017.2 1017.5 0.0
31/02:30pm 18.6 15.8 6.8 46 5.9 NNE 11 19 6 10 1017.5 1017.8 0.0
31/02:00pm 18.8 16.3 8.2 50 5.5 N 11 17 6 9 1017.9 1018.2 0.0
31/01:30pm 18.6 16.5 8.3 51 5.3 NNW 9 17 5 9 1018.5 1018.7 0.0
31/01:00pm 18.0 15.9 8.3 53 5.0 N 9 19 5 10 1018.9 1019.1 0.0
31/12:30pm 17.4 15.7 7.7 53 4.9 N 6 11 3 6 1019.7 1019.9 0.0
31/12:00pm 16.7 14.4 7.4 54 4.7 N 9 15 5 8 1020.2 1020.5 0.0
31/11:30am 15.7 13.2 8.4 62 3.7 NNE 11 17 6 9 1020.5 1020.8 0.0
31/11:00am 14.5 12.4 8.2 66 3.2 NNE 9 13 5 7 1021.1 1021.4 0.0
31/10:30am 12.9 11.9 9.0 77 2.0 SW 4 7 2 4 1021.6 1021.9 0.0
31/10:00am 11.5 10.7 8.0 79 1.7 SE 2 7 1 4 1021.9 1022.2 0.0
31/09:30am 10.1 8.9 7.9 86 1.1 SE 4 7 2 4 1022.1 1022.4 0.0
31/09:00am 7.9 7.0 7.8 99 0.0 SSW 2 6 1 3 1022.4 1022.7 -
31/08:30am 7.0 6.3 7.0 100 0.0 CALM 0 0 0 0 1022.3 1022.6 -
31/08:00am 5.1 4.0 5.0 99 0.0 CALM 0 0 0 0 1022.4 1022.7 -
31/07:30am 3.0 1.5 2.9 99 0.0 CALM 0 0 0 0 1022.2 1022.5 -

Other Formats:

Comma delimited format used in spreadsheet applications
http://www.bom.gov.au/fwo/IDV60801/IDV60801.94889.axf

JavaScript Object Notation format (JSON) in row-major order
http://www.bom.gov.au/fwo/IDV60801/IDV60801.94889.json